WIMM/MES METAR and TAF weather

Enter ICAO airport designator
Station Type Date Time Source
WIMM METAR 2021/05/11 23:00 UTC NOAA

WIMM 112300Z 00000KT 5000 BR SCT017 26/26 Q1007 NOSIG


Station Type Date Time Source
WIMM Decoded METAR 2021/05/11 23:00 UTC NOAA

Medan / Polonia, Indonesia (WIMM) 03-34N 098-41E 25M
May 11, 2021 - 07:00 PM EDT / 2021.05.11 2300 UTC
Wind: Calm:0
Visibility: 3 mile(s):0
Sky conditions: partly cloudy
Weather: mist
Temperature: 78 F (26 C)
Dew Point: 78 F (26 C)
Relative Humidity: 100%
Pressure (altimeter): 29.74 in. Hg (1007 hPa)
ob: WIMM 112300Z 00000KT 5000 BR SCT017 26/26 Q1007 NOSIG
cycle: 23

Station Type Date Time Source
WIMM TAF 2021/05/11 18:54 UTC NOAA

TAF TAF WIMM 111700Z 1118/1218 VRB03KT 5000 HZ FEW016CB SCT017
TEMPO 1118/1120 VRB03KT 3500 -RA
BECMG 1203/1205 36008KT 9999 SCT018

Example: see airport list